Terminal Aerodrome Forecast
Issued by NWS Louisville, KY

Home | Current Version | Previous Version | Text Only | Print | Product List | Glossary On
Versions: 1 2 3 4 5 6 7 8 9 10 11 12 13 14 15 16 17 18 19 20 21 22 23
000
FTUS43 KLMK 301900 AAA
TAFLEX
TAF AMD
KLEX 301932Z 3020/3118 20012G18KT P6SM VCSH SCT050
     FM302100 19015KT P6SM -SHRA VCTS BKN050CB
     FM310100 19013KT 6SM BR VCSH BKN035
     FM310800 21012KT P6SM BKN028
     FM311300 21012KT P6SM BKN018=

USA.gov is the U.S. government's official web portal to all federal, state and local government web resources and services.